createdAt,value
2022-12-31T00:01:50.723Z,101589.00
2022-12-31T00:04:27.298Z,101596.00
2022-12-31T00:07:04.101Z,101595.40
2022-12-31T00:09:41.495Z,101594.20
2022-12-31T00:12:17.816Z,101596.40
2022-12-31T00:14:54.383Z,101604.60
2022-12-31T00:17:32.008Z,101601.60
2022-12-31T00:20:12.876Z,101603.60
2022-12-31T00:22:50.089Z,101599.80
2022-12-31T00:25:27.815Z,101596.80
2022-12-31T00:28:04.733Z,101603.40
2022-12-31T00:30:41.671Z,101598.80
2022-12-31T00:33:18.349Z,101599.80
2022-12-31T00:35:55.129Z,101602.40
2022-12-31T00:38:31.946Z,101601.00
2022-12-31T00:41:09.974Z,101592.80
2022-12-31T00:43:46.890Z,101590.00
2022-12-31T00:46:23.558Z,101584.40
2022-12-31T00:48:59.794Z,101588.40
2022-12-31T00:51:36.353Z,101590.40
2022-12-31T00:54:13.378Z,101598.00
2022-12-31T00:56:50.468Z,101600.20
2022-12-31T00:59:26.913Z,101595.40
2022-12-31T01:02:03.533Z,101592.40
2022-12-31T01:04:41.506Z,101588.60
2022-12-31T01:07:18.457Z,101591.80
2022-12-31T01:09:55.642Z,101593.00
2022-12-31T01:12:33.767Z,101601.40
2022-12-31T01:15:16.097Z,101612.40
2022-12-31T01:17:52.452Z,101615.80
2022-12-31T01:20:29.444Z,101622.00
2022-12-31T01:23:06.464Z,101636.60
2022-12-31T01:25:45.448Z,101639.20
2022-12-31T01:28:22.061Z,101641.00
2022-12-31T01:30:58.264Z,101635.00
2022-12-31T01:33:35.134Z,101638.80
2022-12-31T01:36:23.348Z,101646.60
2022-12-31T01:39:04.727Z,101642.80
2022-12-31T01:41:43.453Z,101650.80
2022-12-31T01:44:57.631Z,101648.60
2022-12-31T01:47:45.543Z,101649.20
2022-12-31T01:50:28.046Z,101656.40
2022-12-31T01:53:08.940Z,101663.20
2022-12-31T01:55:50.978Z,101665.80
2022-12-31T01:58:33.795Z,101668.60
2022-12-31T02:01:15.741Z,101671.40
2022-12-31T02:03:51.756Z,101669.20
2022-12-31T02:06:42.983Z,101669.20
2022-12-31T02:09:21.187Z,101680.40
2022-12-31T02:11:58.316Z,101693.20
2022-12-31T02:14:40.751Z,101691.20
2022-12-31T02:17:27.831Z,101691.60
2022-12-31T02:21:25.126Z,101694.00
2022-12-31T02:24:27.301Z,101696.00
2022-12-31T02:27:09.681Z,101699.20
2022-12-31T02:30:23.298Z,101704.60
2022-12-31T02:33:20.497Z,101711.80
2022-12-31T02:36:03.118Z,101714.40
2022-12-31T02:38:44.194Z,101715.00
2022-12-31T02:41:35.933Z,101711.40
2022-12-31T02:44:29.432Z,101703.60
2022-12-31T02:47:22.956Z,101707.40
2022-12-31T02:50:18.980Z,101718.40
2022-12-31T02:53:06.914Z,101715.80
2022-12-31T02:55:52.954Z,101713.80
2022-12-31T02:58:58.131Z,101720.80
2022-12-31T03:01:57.960Z,101716.60
2022-12-31T03:04:38.476Z,101721.80
2022-12-31T03:07:20.553Z,101726.20
2022-12-31T03:09:58.608Z,101728.20
2022-12-31T03:12:51.913Z,101726.80
2022-12-31T03:15:31.676Z,101731.20
2022-12-31T03:18:11.589Z,101721.80
2022-12-31T03:21:09.542Z,101717.60
2022-12-31T03:24:02.012Z,101723.60
2022-12-31T03:26:39.003Z,101722.20
2022-12-31T03:29:15.777Z,101722.60
2022-12-31T03:31:53.046Z,101716.40
2022-12-31T03:34:30.178Z,101714.60
2022-12-31T03:37:07.300Z,101714.20
2022-12-31T03:39:45.179Z,101710.00
2022-12-31T03:42:22.815Z,101708.00
2022-12-31T03:44:59.954Z,101702.20
2022-12-31T03:47:36.329Z,101705.00
2022-12-31T03:50:16.392Z,101703.20
2022-12-31T03:52:53.201Z,101711.60
2022-12-31T03:55:28.698Z,101710.60
2022-12-31T03:58:04.513Z,101708.00
2022-12-31T04:00:40.379Z,101701.60
2022-12-31T04:03:16.591Z,101698.80
2022-12-31T04:05:59.366Z,101706.20
2022-12-31T04:08:35.945Z,101712.80
2022-12-31T04:11:18.916Z,101704.80
2022-12-31T04:13:57.335Z,101710.00
2022-12-31T04:16:34.495Z,101723.40
2022-12-31T04:19:10.836Z,101717.00
2022-12-31T04:21:48.737Z,101722.40
2022-12-31T04:24:25.054Z,101722.20
2022-12-31T04:27:07.329Z,101725.00
2022-12-31T04:29:44.458Z,101729.20
2022-12-31T04:32:21.204Z,101730.60
2022-12-31T04:34:58.270Z,101728.40
2022-12-31T04:37:35.291Z,101729.00
2022-12-31T04:40:16.593Z,101728.20
2022-12-31T04:42:53.830Z,101732.00
2022-12-31T04:45:30.281Z,101740.40
2022-12-31T04:48:08.404Z,101745.60
2022-12-31T04:50:45.611Z,101752.20
2022-12-31T04:53:22.418Z,101760.80
2022-12-31T04:56:00.105Z,101766.40
2022-12-31T04:58:35.889Z,101769.00
2022-12-31T05:01:13.406Z,101774.20
2022-12-31T05:03:49.826Z,101780.40
2022-12-31T05:06:28.427Z,101788.80
2022-12-31T05:09:04.951Z,101800.40
2022-12-31T05:11:41.418Z,101803.40
2022-12-31T05:14:19.213Z,101804.60
2022-12-31T05:16:56.026Z,101807.20
2022-12-31T05:19:33.446Z,101811.40
2022-12-31T05:22:26.518Z,101809.40
2022-12-31T05:25:04.190Z,101816.20
2022-12-31T05:27:40.786Z,101820.80
2022-12-31T05:30:20.030Z,101820.60
2022-12-31T05:32:56.096Z,101821.00
2022-12-31T05:35:32.953Z,101823.80
2022-12-31T05:38:09.516Z,101830.20
2022-12-31T05:40:46.501Z,101822.40
2022-12-31T05:43:23.957Z,101823.40
2022-12-31T05:46:03.059Z,101828.80
2022-12-31T05:48:39.275Z,101837.40
2022-12-31T05:51:16.827Z,101843.20
2022-12-31T05:53:53.584Z,101841.60
2022-12-31T05:56:31.875Z,101845.60
2022-12-31T05:59:09.957Z,101845.00
2022-12-31T06:01:47.319Z,101848.40
2022-12-31T06:04:24.879Z,101860.00
2022-12-31T06:07:01.950Z,101863.80
2022-12-31T06:09:38.322Z,101860.20
2022-12-31T06:12:16.427Z,101858.40
2022-12-31T06:14:53.917Z,101860.80
2022-12-31T06:17:32.208Z,101869.20
2022-12-31T06:20:13.256Z,101867.60
2022-12-31T06:22:50.287Z,101871.40
2022-12-31T06:25:25.865Z,101875.00
2022-12-31T06:28:01.415Z,101874.60
2022-12-31T06:30:38.611Z,101882.60
2022-12-31T06:33:14.312Z,101885.60
2022-12-31T06:35:50.842Z,101887.20
2022-12-31T06:38:26.675Z,101890.20
2022-12-31T06:41:05.818Z,101894.60
2022-12-31T06:43:42.409Z,101894.40
2022-12-31T06:46:21.322Z,101901.60
2022-12-31T06:48:58.092Z,101904.40
2022-12-31T06:51:35.279Z,101900.00
2022-12-31T06:54:12.405Z,101910.40
2022-12-31T06:56:53.553Z,101908.60
2022-12-31T06:59:35.563Z,101908.80
2022-12-31T07:02:47.475Z,101918.80
2022-12-31T07:05:52.544Z,101928.20
2022-12-31T07:08:53.869Z,101926.20
2022-12-31T07:11:35.689Z,101928.20
2022-12-31T07:14:29.387Z,101934.60
2022-12-31T07:17:24.938Z,101937.80
2022-12-31T07:20:09.594Z,101944.20
2022-12-31T07:22:49.612Z,101942.40
2022-12-31T07:25:30.936Z,101947.80
2022-12-31T07:28:23.354Z,101956.00
2022-12-31T07:31:10.120Z,101960.00
2022-12-31T07:34:02.082Z,101967.60
2022-12-31T07:37:05.909Z,101967.00
2022-12-31T07:40:04.177Z,101970.60
2022-12-31T07:42:58.769Z,101972.20
2022-12-31T07:45:45.111Z,101974.00
2022-12-31T07:48:34.912Z,101980.80
2022-12-31T07:51:17.273Z,101983.00
2022-12-31T07:53:54.411Z,101982.20
2022-12-31T07:56:31.540Z,101978.40
2022-12-31T07:59:24.668Z,101983.60
2022-12-31T08:02:12.421Z,101987.20
2022-12-31T08:05:04.953Z,101989.40
2022-12-31T08:07:51.137Z,101998.40
2022-12-31T08:10:43.602Z,102001.80
2022-12-31T08:13:23.673Z,102012.40
2022-12-31T08:16:05.588Z,102015.20
2022-12-31T08:18:46.791Z,102016.20
2022-12-31T08:21:47.284Z,102018.00
2022-12-31T08:24:38.204Z,102012.60
2022-12-31T08:27:26.343Z,102018.80
2022-12-31T08:30:15.045Z,102016.00
2022-12-31T08:33:08.880Z,102017.40
2022-12-31T08:36:02.777Z,102023.60
2022-12-31T08:38:50.352Z,102029.20
2022-12-31T08:41:42.509Z,102030.40
2022-12-31T08:44:32.070Z,102030.20
2022-12-31T08:47:25.521Z,102030.60
2022-12-31T08:50:07.754Z,102038.80
2022-12-31T08:52:46.971Z,102040.60
2022-12-31T08:55:30.999Z,102042.80
2022-12-31T08:58:28.701Z,102039.00
2022-12-31T09:01:08.358Z,102044.20
2022-12-31T09:04:21.199Z,102048.20
2022-12-31T09:07:04.209Z,102050.80
2022-12-31T09:09:54.214Z,102048.20
2022-12-31T09:12:41.031Z,102049.20
2022-12-31T09:15:29.016Z,102053.00
2022-12-31T09:18:10.347Z,102056.40
2022-12-31T09:20:51.243Z,102055.20
2022-12-31T09:23:33.422Z,102053.00
2022-12-31T09:26:29.807Z,102055.60
2022-12-31T09:29:20.165Z,102051.20
2022-12-31T09:32:07.883Z,102060.00
2022-12-31T09:34:55.876Z,102060.60
2022-12-31T09:37:47.461Z,102057.40
2022-12-31T09:41:07.736Z,102065.20
2022-12-31T09:44:28.913Z,102063.20
2022-12-31T09:48:19.296Z,102063.80
2022-12-31T09:51:23.440Z,102069.60
2022-12-31T09:54:31.535Z,102076.60
2022-12-31T09:57:36.931Z,102074.80
2022-12-31T10:00:24.413Z,102074.60
2022-12-31T10:03:50.551Z,102073.00
2022-12-31T10:06:39.099Z,102066.20
2022-12-31T10:10:03.226Z,102069.40
2022-12-31T10:13:18.033Z,102070.40
2022-12-31T10:16:27.144Z,102063.80
2022-12-31T10:19:56.216Z,102067.60
2022-12-31T10:23:10.189Z,102071.00
2022-12-31T10:26:08.518Z,102071.80
2022-12-31T10:28:57.014Z,102076.20
2022-12-31T10:31:58.025Z,102073.00
2022-12-31T10:35:00.516Z,102063.20
2022-12-31T10:37:52.973Z,102061.60
2022-12-31T10:40:52.315Z,102059.60
2022-12-31T10:44:13.816Z,102055.40
2022-12-31T10:47:31.300Z,102048.20
2022-12-31T10:50:41.301Z,102044.00
2022-12-31T10:53:55.013Z,102038.40
2022-12-31T10:57:15.386Z,102035.80
2022-12-31T11:00:17.686Z,102028.60
2022-12-31T11:03:50.142Z,102033.20
2022-12-31T11:07:30.582Z,102036.40
2022-12-31T11:10:47.510Z,102042.40
2022-12-31T11:14:07.935Z,102034.80
2022-12-31T11:17:15.909Z,102041.00
2022-12-31T11:20:10.336Z,102037.20
2022-12-31T11:23:03.621Z,102035.00
2022-12-31T11:26:04.042Z,102039.80
2022-12-31T11:29:19.366Z,102053.40
2022-12-31T11:32:25.283Z,102034.60
2022-12-31T11:35:30.155Z,102035.40
2022-12-31T11:38:24.878Z,102041.20
2022-12-31T11:41:14.286Z,102044.40
2022-12-31T11:44:03.741Z,102045.00
2022-12-31T11:47:07.051Z,102041.60
2022-12-31T11:50:11.848Z,102029.60
2022-12-31T11:53:12.426Z,102024.00
2022-12-31T11:56:10.405Z,102028.80
2022-12-31T11:58:55.442Z,102021.00
2022-12-31T12:01:41.649Z,102025.80
2022-12-31T12:04:18.537Z,102025.40
2022-12-31T12:06:56.226Z,102016.00
2022-12-31T12:09:37.509Z,102019.60
2022-12-31T12:12:16.648Z,102005.00
2022-12-31T12:14:56.768Z,102001.00
2022-12-31T12:17:39.701Z,101994.80
2022-12-31T12:20:31.687Z,101992.20
2022-12-31T12:23:19.974Z,101993.00
2022-12-31T12:25:57.261Z,101993.00
2022-12-31T12:28:44.649Z,101995.40
2022-12-31T12:31:29.557Z,101987.40
2022-12-31T12:34:05.968Z,101989.00
2022-12-31T12:36:50.792Z,101993.20
2022-12-31T12:39:31.434Z,101985.20
2022-12-31T12:42:16.229Z,101970.80
2022-12-31T12:45:02.840Z,101977.20
2022-12-31T12:47:39.834Z,101982.00
2022-12-31T12:50:24.757Z,101982.80
2022-12-31T12:53:29.847Z,101993.00
2022-12-31T12:56:21.250Z,101997.20
2022-12-31T12:59:41.046Z,101993.20
2022-12-31T13:02:52.209Z,101983.80
2022-12-31T13:05:49.627Z,101994.60
2022-12-31T13:08:50.662Z,101991.60
2022-12-31T13:11:44.044Z,101998.40
2022-12-31T13:14:32.868Z,101998.20
2022-12-31T13:17:30.246Z,101997.80
2022-12-31T13:20:18.126Z,101990.20
2022-12-31T13:23:04.269Z,101986.20
2022-12-31T13:25:56.453Z,101985.40
2022-12-31T13:28:34.842Z,101985.80
2022-12-31T13:31:17.123Z,101986.80
2022-12-31T13:34:01.378Z,101989.60
2022-12-31T13:36:41.273Z,101995.40
2022-12-31T13:39:26.709Z,101991.60
2022-12-31T13:42:10.363Z,101993.80
2022-12-31T13:44:54.454Z,101996.00
2022-12-31T13:47:40.921Z,101994.40
2022-12-31T13:50:30.033Z,102000.80
2022-12-31T13:53:17.700Z,102003.60
2022-12-31T13:56:02.601Z,101997.20
2022-12-31T13:58:47.046Z,101996.40
2022-12-31T14:01:34.105Z,101989.60
2022-12-31T14:04:21.639Z,101995.80
2022-12-31T14:07:14.982Z,101995.80
2022-12-31T14:09:51.827Z,101996.80
2022-12-31T14:12:49.981Z,102005.20
2022-12-31T14:15:39.084Z,102010.00
2022-12-31T14:18:28.636Z,102016.40
2022-12-31T14:21:14.956Z,102012.40
2022-12-31T14:24:04.967Z,102017.60
2022-12-31T14:26:47.753Z,102017.60
2022-12-31T14:29:41.653Z,102023.60
2022-12-31T14:33:23.174Z,102027.60
2022-12-31T14:36:30.144Z,102034.60
2022-12-31T14:39:31.283Z,102045.60
2022-12-31T14:42:28.578Z,102048.60
2022-12-31T14:45:28.911Z,102055.40
2022-12-31T14:48:17.116Z,102052.00
2022-12-31T14:50:57.523Z,102051.80
2022-12-31T14:53:34.486Z,102054.60
2022-12-31T14:56:32.737Z,102065.20
2022-12-31T14:59:25.843Z,102063.20
2022-12-31T15:02:03.395Z,102064.60
2022-12-31T15:04:47.676Z,102073.00
2022-12-31T15:07:37.592Z,102074.00
2022-12-31T15:10:26.790Z,102071.00
2022-12-31T15:13:18.256Z,102064.20
2022-12-31T15:16:29.808Z,102056.60
2022-12-31T15:20:16.726Z,102058.40
2022-12-31T15:22:55.827Z,102063.00
2022-12-31T15:29:12.070Z,102065.60
2022-12-31T15:31:52.233Z,102068.20
2022-12-31T15:34:37.179Z,102069.40
2022-12-31T15:37:39.501Z,102069.40
2022-12-31T15:40:26.970Z,102074.00
2022-12-31T15:43:12.308Z,102070.20
2022-12-31T15:45:52.384Z,102071.40
2022-12-31T15:48:40.391Z,102073.40
2022-12-31T15:51:26.880Z,102076.20
2022-12-31T15:54:06.050Z,102081.20
2022-12-31T15:56:54.156Z,102085.40
2022-12-31T15:59:32.864Z,102098.00
2022-12-31T16:02:19.526Z,102098.80
2022-12-31T16:04:57.103Z,102103.00
2022-12-31T16:07:35.619Z,102108.20
2022-12-31T16:10:17.995Z,102114.80
2022-12-31T16:12:55.979Z,102113.20
2022-12-31T16:15:36.737Z,102119.40
2022-12-31T16:18:22.608Z,102120.40
2022-12-31T16:20:59.735Z,102134.80
2022-12-31T16:23:42.239Z,102131.40
2022-12-31T16:26:19.514Z,102132.00
2022-12-31T16:29:00.527Z,102129.00
2022-12-31T16:31:37.603Z,102130.20
2022-12-31T16:34:20.229Z,102132.40
2022-12-31T16:37:06.755Z,102132.00
2022-12-31T16:40:01.392Z,102136.60
2022-12-31T16:42:44.315Z,102139.40
2022-12-31T16:45:37.746Z,102135.40
2022-12-31T16:48:21.247Z,102142.00
2022-12-31T16:51:01.213Z,102138.00
2022-12-31T16:53:42.996Z,102137.80
2022-12-31T16:56:32.167Z,102136.60
2022-12-31T16:59:23.382Z,102137.40
2022-12-31T17:02:02.785Z,102137.00
2022-12-31T17:04:45.951Z,102137.00
2022-12-31T17:07:47.129Z,102139.60
2022-12-31T17:10:28.562Z,102147.80
2022-12-31T17:13:29.412Z,102158.00
2022-12-31T17:16:10.284Z,102158.80
2022-12-31T17:18:51.218Z,102163.80
2022-12-31T17:21:34.031Z,102170.80
2022-12-31T17:24:16.276Z,102174.00
2022-12-31T17:26:54.300Z,102170.00
2022-12-31T17:29:32.977Z,102172.40
2022-12-31T17:32:28.252Z,102178.20
2022-12-31T17:35:04.066Z,102175.00
2022-12-31T17:37:40.922Z,102164.20
2022-12-31T17:40:51.907Z,102169.80
2022-12-31T17:43:34.883Z,102167.80
2022-12-31T17:46:17.348Z,102168.20
2022-12-31T17:49:02.478Z,102171.00
2022-12-31T17:51:42.547Z,102175.00
2022-12-31T17:54:24.747Z,102175.80
2022-12-31T17:57:03.020Z,102178.40
2022-12-31T17:59:39.881Z,102181.20
2022-12-31T18:02:20.342Z,102179.80
2022-12-31T18:04:57.054Z,102187.00
2022-12-31T18:07:34.404Z,102183.00
2022-12-31T18:10:13.942Z,102184.60
2022-12-31T18:12:51.931Z,102187.60
2022-12-31T18:15:29.772Z,102187.00
2022-12-31T18:18:18.108Z,102184.80
2022-12-31T18:21:02.113Z,102185.80
2022-12-31T18:23:46.264Z,102191.20
2022-12-31T18:26:25.199Z,102188.80
2022-12-31T18:29:03.714Z,102190.80
2022-12-31T18:31:41.972Z,102185.40
2022-12-31T18:34:19.907Z,102183.40
2022-12-31T18:36:56.522Z,102180.40
2022-12-31T18:39:33.496Z,102182.60
2022-12-31T18:42:13.489Z,102185.80
2022-12-31T18:44:50.325Z,102185.20
2022-12-31T18:47:26.935Z,102188.00
2022-12-31T18:50:03.838Z,102184.00
2022-12-31T18:52:40.659Z,102185.80
2022-12-31T18:55:40.375Z,102182.80
2022-12-31T18:58:18.115Z,102189.00
2022-12-31T19:00:56.004Z,102190.20
2022-12-31T19:03:32.533Z,102189.40
2022-12-31T19:06:10.283Z,102191.40
2022-12-31T19:08:46.486Z,102187.20
2022-12-31T19:11:24.097Z,102189.40
2022-12-31T19:14:00.688Z,102192.00
2022-12-31T19:16:37.486Z,102190.60
2022-12-31T19:19:14.444Z,102189.60
2022-12-31T19:21:51.208Z,102186.60
2022-12-31T19:24:29.693Z,102184.40
2022-12-31T19:27:08.295Z,102193.20
2022-12-31T19:29:44.650Z,102198.20
2022-12-31T19:32:21.323Z,102199.60
2022-12-31T19:34:58.466Z,102204.40
2022-12-31T19:37:35.503Z,102202.60
2022-12-31T19:40:19.896Z,102200.00
2022-12-31T19:42:57.366Z,102201.80
2022-12-31T19:45:34.580Z,102208.80
2022-12-31T19:48:14.930Z,102210.20
2022-12-31T19:50:53.760Z,102219.60
2022-12-31T19:53:32.871Z,102224.40
2022-12-31T19:56:13.089Z,102227.00
2022-12-31T19:58:49.762Z,102239.60
2022-12-31T20:01:28.575Z,102241.80
2022-12-31T20:04:05.191Z,102254.60
2022-12-31T20:06:41.953Z,102253.40
2022-12-31T20:09:19.395Z,102255.40
2022-12-31T20:11:57.002Z,102256.40
2022-12-31T20:14:32.628Z,102257.60
2022-12-31T20:17:09.664Z,102254.40
2022-12-31T20:19:46.085Z,102248.40
2022-12-31T20:22:22.168Z,102249.80
2022-12-31T20:24:58.519Z,102253.80
2022-12-31T20:27:35.490Z,102255.60
2022-12-31T20:30:17.432Z,102251.20
2022-12-31T20:32:55.268Z,102257.80
2022-12-31T20:35:32.123Z,102252.40
2022-12-31T20:38:09.348Z,102256.40
2022-12-31T20:40:47.298Z,102254.60
2022-12-31T20:43:24.075Z,102256.20
2022-12-31T20:46:00.671Z,102258.40
2022-12-31T20:48:38.706Z,102262.00
2022-12-31T20:51:17.139Z,102260.60
2022-12-31T20:53:57.731Z,102260.60
2022-12-31T20:56:35.164Z,102256.00
2022-12-31T20:59:13.964Z,102257.40
2022-12-31T21:02:19.267Z,102262.20
2022-12-31T21:04:48.341Z,102255.00
2022-12-31T21:07:25.631Z,102257.80
2022-12-31T21:10:02.668Z,102256.80
2022-12-31T21:12:44.904Z,102253.00
2022-12-31T21:15:23.284Z,102253.20
2022-12-31T21:18:01.163Z,102251.60
2022-12-31T21:20:38.511Z,102253.00
2022-12-31T21:23:15.644Z,102250.20
2022-12-31T21:25:54.563Z,102247.00
2022-12-31T21:28:30.967Z,102256.40
2022-12-31T21:31:10.361Z,102254.60
2022-12-31T21:33:47.848Z,102244.20
2022-12-31T21:36:24.529Z,102243.80
2022-12-31T21:39:01.141Z,102241.20
2022-12-31T21:41:53.759Z,102239.20
2022-12-31T21:44:31.058Z,102238.80
2022-12-31T21:47:47.253Z,102244.80
2022-12-31T21:50:22.964Z,102244.00
2022-12-31T21:52:59.695Z,102242.20
2022-12-31T21:55:56.993Z,102242.80
2022-12-31T21:58:33.649Z,102240.60
2022-12-31T22:01:30.310Z,102246.00
2022-12-31T22:04:12.913Z,102242.80
2022-12-31T22:06:59.686Z,102245.20
2022-12-31T22:09:36.380Z,102242.40
2022-12-31T22:12:15.172Z,102243.80
2022-12-31T22:15:15.815Z,102248.80
2022-12-31T22:17:48.890Z,102247.00
2022-12-31T22:20:27.582Z,102240.80
2022-12-31T22:23:04.926Z,102242.00
2022-12-31T22:25:43.265Z,102237.40
2022-12-31T22:31:18.550Z,102238.20
2022-12-31T22:33:55.967Z,102239.80
2022-12-31T22:36:33.001Z,102234.40
2022-12-31T22:39:09.705Z,102233.20
2022-12-31T22:41:46.794Z,102228.80
2022-12-31T22:44:23.538Z,102226.00
2022-12-31T22:47:00.680Z,102230.80
2022-12-31T22:49:37.352Z,102227.80
2022-12-31T22:52:15.379Z,102223.60
2022-12-31T22:54:51.791Z,102222.80
2022-12-31T22:57:28.163Z,102225.40
2022-12-31T23:00:04.489Z,102220.60
2022-12-31T23:02:42.180Z,102216.80
2022-12-31T23:05:19.912Z,102218.60
2022-12-31T23:07:58.164Z,102212.00
2022-12-31T23:10:52.316Z,102211.60
2022-12-31T23:13:50.131Z,102217.00
2022-12-31T23:16:44.500Z,102215.40
2022-12-31T23:19:38.126Z,102208.00
2022-12-31T23:22:31.678Z,102208.00
2022-12-31T23:25:09.193Z,102210.60
2022-12-31T23:27:45.585Z,102208.40
2022-12-31T23:30:23.327Z,102211.40
2022-12-31T23:32:59.180Z,102213.80
2022-12-31T23:35:35.159Z,102205.80
2022-12-31T23:38:11.831Z,102207.00
2022-12-31T23:40:49.137Z,102206.60
2022-12-31T23:43:28.266Z,102204.20
2022-12-31T23:46:04.524Z,102197.20
2022-12-31T23:48:41.009Z,102192.00
2022-12-31T23:51:18.114Z,102194.60
2022-12-31T23:53:55.149Z,102197.40
2022-12-31T23:56:32.913Z,102197.60
2022-12-31T23:59:10.153Z,102194.00
